createdAt,value
2023-05-10T00:00:59.161Z,5.30
2023-05-10T00:01:59.220Z,5.65
2023-05-10T00:02:59.513Z,5.48
2023-05-10T00:03:59.292Z,5.40
2023-05-10T00:04:59.313Z,5.53
2023-05-10T00:05:59.305Z,5.40
2023-05-10T00:06:59.307Z,5.25
2023-05-10T00:07:59.349Z,5.44
2023-05-10T00:08:59.361Z,5.44
2023-05-10T00:09:59.398Z,5.10
2023-05-10T00:10:59.420Z,5.41
2023-05-10T00:11:59.441Z,5.25
2023-05-10T00:12:59.444Z,5.06
2023-05-10T00:13:59.484Z,5.28
2023-05-10T00:14:59.448Z,5.22
2023-05-10T00:15:59.527Z,5.21
2023-05-10T00:16:59.573Z,5.00
2023-05-10T00:17:59.471Z,4.99
2023-05-10T00:18:59.488Z,5.15
2023-05-10T00:19:59.508Z,5.05
2023-05-10T00:20:59.541Z,5.28
2023-05-10T00:21:59.554Z,5.14
2023-05-10T00:22:59.565Z,5.31
2023-05-10T00:23:59.994Z,5.24
2023-05-10T00:24:59.613Z,5.17
2023-05-10T00:25:59.638Z,5.25
2023-05-10T00:26:59.639Z,5.01
2023-05-10T00:27:59.676Z,5.10
2023-05-10T00:28:59.663Z,5.08
2023-05-10T00:29:59.695Z,5.03
2023-05-10T00:30:59.741Z,5.11
2023-05-10T00:31:59.761Z,4.93
2023-05-10T00:32:59.806Z,4.90
2023-05-10T00:33:59.782Z,4.89
2023-05-10T00:34:59.886Z,4.86
2023-05-10T00:35:59.852Z,5.12
2023-05-10T00:36:59.884Z,5.00
2023-05-10T00:37:59.877Z,5.08
2023-05-10T00:39:00.009Z,5.01
2023-05-10T00:39:59.957Z,5.15
2023-05-10T00:41:00.025Z,4.83
2023-05-10T00:42:00.069Z,4.99
2023-05-10T00:43:00.146Z,5.00
2023-05-10T00:44:00.206Z,5.00
2023-05-10T00:45:00.150Z,4.72
2023-05-10T00:46:00.298Z,4.86
2023-05-10T00:47:00.214Z,4.85
2023-05-10T00:48:00.293Z,4.86
2023-05-10T00:49:00.558Z,4.89
2023-05-10T00:50:00.282Z,5.02
2023-05-10T00:51:00.284Z,4.91
2023-05-10T00:52:00.396Z,4.66
2023-05-10T00:53:00.357Z,4.57
2023-05-10T00:54:00.490Z,4.70
2023-05-10T00:55:00.387Z,4.62
2023-05-10T00:56:00.393Z,4.73
2023-05-10T00:57:00.442Z,4.61
2023-05-10T00:58:00.464Z,4.85
2023-05-10T00:59:01.021Z,4.82
2023-05-10T01:00:00.531Z,4.83
2023-05-10T01:01:00.577Z,4.91
2023-05-10T01:02:00.578Z,4.74
2023-05-10T01:03:00.681Z,4.79
2023-05-10T01:04:00.998Z,4.74
2023-05-10T01:05:00.648Z,4.61
2023-05-10T01:06:00.670Z,4.60
2023-05-10T01:07:00.666Z,4.70
2023-05-10T01:08:00.695Z,4.63
2023-05-10T01:09:01.018Z,4.64
2023-05-10T01:10:00.734Z,4.78
2023-05-10T01:11:00.769Z,4.56
2023-05-10T01:12:00.785Z,4.71
2023-05-10T01:13:00.854Z,4.70
2023-05-10T01:14:01.035Z,4.60
2023-05-10T01:15:00.880Z,4.49
2023-05-10T01:16:00.950Z,4.62
2023-05-10T01:17:00.957Z,4.67
2023-05-10T01:18:01.027Z,4.60
2023-05-10T01:19:00.996Z,4.48
2023-05-10T01:20:00.977Z,4.31
2023-05-10T01:21:01.017Z,4.51
2023-05-10T01:22:01.037Z,4.76
2023-05-10T01:23:01.177Z,4.51
2023-05-10T01:24:01.104Z,4.49
2023-05-10T01:25:01.166Z,4.35
2023-05-10T01:26:01.171Z,4.37
2023-05-10T01:27:01.226Z,4.63
2023-05-10T01:28:01.228Z,4.46
2023-05-10T01:29:01.499Z,4.49
2023-05-10T01:30:14.886Z,4.33
2023-05-10T01:31:02.381Z,4.34
2023-05-10T01:32:01.303Z,4.35
2023-05-10T01:33:01.327Z,4.37
2023-05-10T01:34:01.512Z,4.41
2023-05-10T01:35:01.283Z,4.59
2023-05-10T01:36:01.294Z,4.40
2023-05-10T01:37:01.297Z,4.44
2023-05-10T01:38:01.241Z,4.45
2023-05-10T01:39:01.495Z,4.46
2023-05-10T01:40:01.265Z,4.46
2023-05-10T01:41:01.265Z,4.36
2023-05-10T01:42:01.226Z,4.29
2023-05-10T01:43:01.235Z,4.55
2023-05-10T01:44:01.239Z,4.49
2023-05-10T01:45:01.245Z,4.28
2023-05-10T01:46:01.207Z,4.38
2023-05-10T01:47:01.330Z,4.11
2023-05-10T01:48:01.340Z,4.33
2023-05-10T01:49:01.528Z,4.18
2023-05-10T01:50:01.306Z,4.29
2023-05-10T01:51:01.389Z,4.33
2023-05-10T01:52:01.395Z,4.38
2023-05-10T01:53:01.416Z,4.32
2023-05-10T01:54:01.511Z,4.38
2023-05-10T01:55:01.523Z,4.36
2023-05-10T01:56:01.520Z,4.25
2023-05-10T01:57:01.563Z,4.23
2023-05-10T01:58:01.586Z,4.22
2023-05-10T01:59:01.647Z,4.24
2023-05-10T02:00:01.656Z,4.23
2023-05-10T02:01:01.767Z,4.31
2023-05-10T02:02:01.725Z,4.18
2023-05-10T02:03:01.753Z,4.27
2023-05-10T02:04:02.119Z,4.32
2023-05-10T02:05:01.834Z,4.21
2023-05-10T02:06:01.908Z,4.19
2023-05-10T02:07:01.901Z,4.22
2023-05-10T02:08:01.972Z,3.97
2023-05-10T02:09:01.967Z,4.05
2023-05-10T02:10:02.065Z,4.25
2023-05-10T02:11:02.108Z,4.18
2023-05-10T02:12:02.148Z,4.22
2023-05-10T02:13:02.180Z,4.17
2023-05-10T02:14:02.534Z,4.21
2023-05-10T02:15:02.191Z,4.17
2023-05-10T02:16:02.198Z,4.20
2023-05-10T02:17:02.399Z,4.14
2023-05-10T02:18:02.267Z,4.04
2023-05-10T02:19:02.544Z,4.05
2023-05-10T02:20:02.350Z,4.15
2023-05-10T02:21:02.347Z,4.13
2023-05-10T02:22:02.422Z,4.10
2023-05-10T02:23:02.463Z,4.07
2023-05-10T02:24:02.547Z,4.05
2023-05-10T02:25:02.492Z,4.07
2023-05-10T02:26:02.558Z,3.97
2023-05-10T02:27:02.589Z,4.07
2023-05-10T02:28:02.644Z,3.90
2023-05-10T02:29:02.678Z,3.91
2023-05-10T02:30:02.641Z,4.03
2023-05-10T02:31:02.743Z,4.02
2023-05-10T02:32:02.773Z,4.02
2023-05-10T02:33:02.778Z,3.99
2023-05-10T02:34:02.805Z,3.98
2023-05-10T02:35:02.828Z,3.97
2023-05-10T02:36:02.845Z,3.95
2023-05-10T02:37:02.869Z,3.98
2023-05-10T02:38:02.949Z,3.98
2023-05-10T02:39:03.049Z,3.90
2023-05-10T02:40:02.955Z,3.98
2023-05-10T02:41:03.013Z,3.97
2023-05-10T02:42:03.086Z,3.95
2023-05-10T02:43:03.069Z,3.90
2023-05-10T02:44:03.082Z,3.91
2023-05-10T02:45:03.142Z,3.87
2023-05-10T02:46:03.248Z,3.86
2023-05-10T02:47:03.204Z,3.89
2023-05-10T02:48:03.268Z,3.78
2023-05-10T02:49:03.281Z,3.85
2023-05-10T02:50:03.343Z,3.81
2023-05-10T02:51:03.346Z,3.84
2023-05-10T02:52:03.386Z,3.83
2023-05-10T02:53:03.461Z,3.87
2023-05-10T02:54:03.499Z,3.73
2023-05-10T02:55:03.720Z,3.83
2023-05-10T02:56:03.602Z,3.83
2023-05-10T02:57:03.700Z,3.86
2023-05-10T02:58:03.703Z,3.83
2023-05-10T02:59:03.753Z,3.82
2023-05-10T03:00:03.800Z,3.80
2023-05-10T03:01:03.860Z,3.78
2023-05-10T03:02:03.937Z,3.78
2023-05-10T03:03:04.008Z,3.78
2023-05-10T03:04:04.619Z,3.82
2023-05-10T03:05:04.087Z,3.76
2023-05-10T03:06:04.110Z,3.78
2023-05-10T03:07:04.113Z,3.78
2023-05-10T03:08:04.171Z,3.78
2023-05-10T03:09:04.290Z,3.70
2023-05-10T03:10:04.298Z,3.73
2023-05-10T03:11:04.333Z,3.70
2023-05-10T03:12:04.416Z,3.68
2023-05-10T03:13:04.462Z,3.77
2023-05-10T03:14:04.498Z,3.71
2023-05-10T03:15:04.516Z,3.71
2023-05-10T03:16:04.629Z,3.66
2023-05-10T03:17:04.618Z,3.65
2023-05-10T03:18:04.746Z,3.65
2023-05-10T03:19:04.700Z,3.65
2023-05-10T03:20:04.798Z,3.66
2023-05-10T03:21:04.824Z,3.63
2023-05-10T03:22:04.896Z,3.64
2023-05-10T03:23:04.886Z,3.56
2023-05-10T03:24:05.011Z,3.58
2023-05-10T03:25:05.017Z,3.59
2023-05-10T03:26:05.071Z,3.63
2023-05-10T03:27:05.128Z,3.62
2023-05-10T03:28:05.143Z,3.59
2023-05-10T03:29:05.203Z,3.55
2023-05-10T03:30:05.243Z,3.56
2023-05-10T03:31:05.333Z,3.57
2023-05-10T03:32:05.346Z,3.58
2023-05-10T03:33:05.446Z,3.53
2023-05-10T03:34:05.422Z,3.51
2023-05-10T03:35:05.471Z,3.54
2023-05-10T03:36:05.529Z,3.47
2023-05-10T03:37:05.544Z,3.52
2023-05-10T03:38:05.660Z,3.51
2023-05-10T03:39:06.042Z,3.50
2023-05-10T03:40:05.735Z,3.47
2023-05-10T03:41:05.781Z,3.49
2023-05-10T03:42:05.851Z,3.50
2023-05-10T03:43:05.874Z,3.54
2023-05-10T03:44:06.054Z,3.49
2023-05-10T03:45:06.005Z,3.46
2023-05-10T03:46:06.012Z,3.51
2023-05-10T03:47:06.227Z,3.47
2023-05-10T03:48:06.188Z,3.50
2023-05-10T03:49:06.215Z,3.48
2023-05-10T03:50:06.278Z,3.46
2023-05-10T03:51:06.320Z,3.45
2023-05-10T03:52:06.364Z,3.44
2023-05-10T03:53:06.430Z,3.43
2023-05-10T03:54:06.575Z,3.43
2023-05-10T03:55:06.487Z,3.45
2023-05-10T03:56:06.536Z,3.44
2023-05-10T03:57:06.648Z,3.39
2023-05-10T03:58:06.664Z,3.37
2023-05-10T03:59:06.699Z,3.37
2023-05-10T04:00:06.748Z,3.41
2023-05-10T04:01:06.815Z,3.25
2023-05-10T04:02:06.963Z,3.37
2023-05-10T04:03:06.974Z,3.41
2023-05-10T04:04:07.006Z,3.35
2023-05-10T04:05:07.007Z,3.32
2023-05-10T04:06:07.090Z,3.37
2023-05-10T04:07:07.138Z,3.31
2023-05-10T04:08:07.186Z,3.37
2023-05-10T04:09:07.596Z,3.34
2023-05-10T04:10:07.295Z,3.31
2023-05-10T04:11:07.350Z,3.31
2023-05-10T04:12:08.911Z,3.34
2023-05-10T04:13:07.434Z,3.39
2023-05-10T04:14:07.378Z,3.33
2023-05-10T04:15:07.395Z,3.29
2023-05-10T04:16:07.360Z,3.31
2023-05-10T04:17:07.582Z,3.28
2023-05-10T04:18:08.845Z,3.27
2023-05-10T04:19:07.350Z,3.37
2023-05-10T04:20:07.365Z,3.29
2023-05-10T04:21:07.363Z,3.27
2023-05-10T04:22:07.333Z,3.27
2023-05-10T04:23:07.305Z,3.27
2023-05-10T04:24:07.552Z,3.25
2023-05-10T04:25:07.390Z,3.24
2023-05-10T04:26:07.282Z,3.23
2023-05-10T04:27:07.318Z,3.27
2023-05-10T04:28:07.334Z,3.25
2023-05-10T04:29:07.327Z,3.24
2023-05-10T04:30:07.290Z,3.20
2023-05-10T04:31:07.323Z,3.21
2023-05-10T04:32:07.296Z,3.20
2023-05-10T04:33:07.395Z,3.14
2023-05-10T04:34:07.393Z,3.17
2023-05-10T04:35:07.567Z,3.19
2023-05-10T04:36:07.502Z,3.17
2023-05-10T04:37:07.553Z,3.17
2023-05-10T04:38:07.614Z,3.15
2023-05-10T04:39:07.657Z,3.05
2023-05-10T04:40:07.739Z,3.14
2023-05-10T04:41:07.776Z,3.15
2023-05-10T04:42:07.852Z,3.17
2023-05-10T04:43:07.926Z,3.12
2023-05-10T04:44:07.927Z,3.15
2023-05-10T04:45:08.010Z,3.11
2023-05-10T04:46:08.191Z,3.10
2023-05-10T04:47:08.937Z,3.01
2023-05-10T04:48:08.155Z,3.07
2023-05-10T04:49:08.579Z,3.09
2023-05-10T04:50:08.301Z,3.07
2023-05-10T04:51:08.346Z,3.09
2023-05-10T04:52:08.392Z,3.07
2023-05-10T04:53:08.483Z,3.08
2023-05-10T04:54:08.540Z,2.98
2023-05-10T04:55:08.619Z,2.87
2023-05-10T04:56:08.694Z,2.74
2023-05-10T04:57:08.739Z,2.61
2023-05-10T04:58:08.808Z,2.53
2023-05-10T04:59:08.848Z,2.42
2023-05-10T05:00:08.924Z,2.35
2023-05-10T05:01:08.893Z,2.33
2023-05-10T05:02:09.117Z,2.62
2023-05-10T05:03:09.015Z,2.82
2023-05-10T05:04:09.107Z,2.81
2023-05-10T05:05:08.907Z,2.64
2023-05-10T05:06:08.918Z,2.57
2023-05-10T05:07:08.908Z,2.42
2023-05-10T05:08:08.930Z,2.37
2023-05-10T05:09:08.916Z,2.44
2023-05-10T05:10:08.938Z,2.49
2023-05-10T05:11:08.912Z,2.41
2023-05-10T05:12:08.908Z,2.38
2023-05-10T05:13:08.987Z,2.35
2023-05-10T05:14:08.917Z,2.38
2023-05-10T05:15:09.945Z,2.49
2023-05-10T05:16:08.952Z,2.48
2023-05-10T05:17:08.924Z,3.45
2023-05-10T05:18:08.993Z,4.25
2023-05-10T05:19:08.921Z,3.58
2023-05-10T05:20:08.985Z,3.60
2023-05-10T05:21:08.966Z,4.06
2023-05-10T05:22:08.938Z,3.60
2023-05-10T05:23:08.972Z,4.10
2023-05-10T05:24:08.931Z,3.85
2023-05-10T05:25:08.947Z,3.97
2023-05-10T05:26:08.995Z,4.24
2023-05-10T05:27:08.951Z,4.85
2023-05-10T05:28:08.975Z,4.24
2023-05-10T05:29:09.131Z,4.17
2023-05-10T05:30:09.029Z,4.12
2023-05-10T05:31:09.078Z,3.98
2023-05-10T05:32:09.013Z,4.05
2023-05-10T05:33:08.961Z,3.88
2023-05-10T05:34:08.958Z,3.88
2023-05-10T05:35:08.945Z,3.83
2023-05-10T05:36:08.984Z,3.81
2023-05-10T05:37:08.961Z,3.89
2023-05-10T05:38:08.970Z,3.87
2023-05-10T05:39:09.137Z,3.66
2023-05-10T05:40:09.064Z,3.59
2023-05-10T05:41:09.161Z,3.50
2023-05-10T05:42:09.163Z,3.48
2023-05-10T05:43:09.171Z,3.50
2023-05-10T05:44:09.446Z,3.47
2023-05-10T05:45:09.041Z,3.54
2023-05-10T05:46:09.128Z,3.45
2023-05-10T05:47:09.053Z,3.37
2023-05-10T05:48:09.057Z,3.41
2023-05-10T05:49:09.056Z,3.41
2023-05-10T05:50:09.105Z,3.25
2023-05-10T05:51:09.057Z,3.12
2023-05-10T05:52:09.086Z,3.08
2023-05-10T05:53:09.095Z,3.05
2023-05-10T05:54:09.117Z,3.00
2023-05-10T05:55:09.110Z,2.98
2023-05-10T05:56:09.110Z,2.94
2023-05-10T05:57:09.093Z,3.24
2023-05-10T05:58:09.129Z,3.27
2023-05-10T05:59:09.137Z,3.37
2023-05-10T06:00:09.603Z,3.50
2023-05-10T06:01:09.126Z,3.82
2023-05-10T06:02:09.211Z,3.86
2023-05-10T06:03:09.311Z,3.92
2023-05-10T06:04:09.193Z,4.10
2023-05-10T06:05:09.234Z,4.28
2023-05-10T06:06:09.286Z,4.24
2023-05-10T06:07:09.290Z,4.27
2023-05-10T06:08:09.394Z,4.40
2023-05-10T06:09:09.433Z,4.48
2023-05-10T06:10:09.501Z,4.58
2023-05-10T06:11:09.541Z,4.70
2023-05-10T06:12:09.586Z,4.81
2023-05-10T06:13:09.652Z,4.89
2023-05-10T06:14:09.654Z,5.08
2023-05-10T06:15:09.727Z,5.19
2023-05-10T06:16:09.804Z,5.33
2023-05-10T06:17:09.780Z,5.48
2023-05-10T06:18:09.963Z,5.56
2023-05-10T06:19:09.880Z,5.52
2023-05-10T06:20:09.876Z,5.34
2023-05-10T06:21:09.922Z,5.41
2023-05-10T06:22:09.915Z,5.62
2023-05-10T06:23:09.972Z,5.71
2023-05-10T06:24:10.008Z,5.67
2023-05-10T06:25:10.044Z,6.11
2023-05-10T06:26:10.065Z,5.76
2023-05-10T06:27:10.113Z,5.88
2023-05-10T06:28:10.166Z,5.89
2023-05-10T06:29:10.159Z,6.24
2023-05-10T06:30:13.324Z,6.14
2023-05-10T06:31:10.186Z,6.31
2023-05-10T06:32:10.162Z,6.31
2023-05-10T06:33:10.193Z,6.16
2023-05-10T06:34:10.145Z,6.19
2023-05-10T06:35:10.608Z,6.04
2023-05-10T06:36:10.172Z,6.22
2023-05-10T06:37:10.114Z,6.34
2023-05-10T06:38:10.103Z,6.12
2023-05-10T06:39:10.091Z,6.43
2023-05-10T06:40:10.115Z,6.68
2023-05-10T06:41:10.098Z,6.28
2023-05-10T06:42:10.063Z,6.27
2023-05-10T06:43:10.074Z,6.25
2023-05-10T06:44:10.084Z,6.07
2023-05-10T06:45:10.086Z,6.18
2023-05-10T06:46:10.137Z,6.15
2023-05-10T06:47:10.082Z,6.03
2023-05-10T06:48:10.096Z,6.07
2023-05-10T06:49:10.048Z,5.99
2023-05-10T06:50:10.061Z,6.19
2023-05-10T06:51:10.060Z,6.41
2023-05-10T06:52:10.018Z,6.13
2023-05-10T06:53:10.016Z,5.59
2023-05-10T06:54:09.974Z,5.29
2023-05-10T06:55:10.005Z,7.25
2023-05-10T06:56:09.987Z,8.33
2023-05-10T06:57:23.380Z,7.55
2023-05-10T06:58:10.973Z,7.57
2023-05-10T06:59:09.980Z,7.36
2023-05-10T07:00:10.173Z,7.05
2023-05-10T07:01:10.076Z,6.86
2023-05-10T07:02:09.982Z,6.69
2023-05-10T07:03:10.035Z,6.58
2023-05-10T07:04:09.952Z,6.39
2023-05-10T07:05:10.167Z,6.53
2023-05-10T07:06:18.563Z,6.35
2023-05-10T07:07:10.936Z,6.37
2023-05-10T07:08:09.920Z,6.14
2023-05-10T07:09:09.936Z,6.04
2023-05-10T07:10:09.950Z,6.05
2023-05-10T07:11:09.902Z,5.89
2023-05-10T07:12:11.640Z,5.77
2023-05-10T07:13:09.964Z,5.79
2023-05-10T07:14:09.948Z,6.66
2023-05-10T07:15:09.867Z,6.21
2023-05-10T07:16:09.897Z,5.57
2023-05-10T07:17:09.931Z,5.52
2023-05-10T07:18:09.946Z,5.39
2023-05-10T07:19:09.821Z,5.09
2023-05-10T07:20:10.163Z,5.05
2023-05-10T07:21:09.841Z,5.05
2023-05-10T07:22:09.833Z,4.89
2023-05-10T07:23:09.816Z,4.93
2023-05-10T07:24:09.829Z,4.79
2023-05-10T07:25:09.828Z,4.65
2023-05-10T07:26:09.805Z,4.73
2023-05-10T07:27:10.670Z,4.72
2023-05-10T07:28:09.800Z,4.83
2023-05-10T07:29:09.785Z,4.78
2023-05-10T07:30:09.864Z,4.66
2023-05-10T07:31:09.838Z,4.72
2023-05-10T07:32:09.785Z,4.77
2023-05-10T07:33:09.825Z,4.75
2023-05-10T07:34:09.792Z,4.58
2023-05-10T07:35:09.772Z,4.58
2023-05-10T07:36:09.759Z,4.26
2023-05-10T07:37:09.794Z,4.38
2023-05-10T07:38:09.772Z,4.00
2023-05-10T07:39:09.952Z,4.03
2023-05-10T07:40:09.743Z,3.80
2023-05-10T07:41:09.745Z,4.00
2023-05-10T07:42:09.757Z,3.92
2023-05-10T07:43:09.715Z,3.97
2023-05-10T07:44:09.732Z,4.04
2023-05-10T07:45:09.741Z,4.05
2023-05-10T07:46:09.789Z,3.97
2023-05-10T07:47:09.733Z,4.20
2023-05-10T07:48:09.739Z,4.41
2023-05-10T07:49:09.809Z,4.19
2023-05-10T07:50:10.178Z,4.24
2023-05-10T07:51:09.935Z,6.24
2023-05-10T07:52:09.989Z,6.52
2023-05-10T07:53:10.106Z,5.59
2023-05-10T07:54:10.135Z,5.18
2023-05-10T07:55:10.647Z,4.94
2023-05-10T07:56:10.234Z,4.81
2023-05-10T07:57:10.270Z,4.59
2023-05-10T07:58:10.330Z,4.27
2023-05-10T07:59:12.703Z,4.24
2023-05-10T08:00:10.470Z,4.25
2023-05-10T08:01:10.513Z,4.05
2023-05-10T08:02:10.612Z,4.02
2023-05-10T08:03:10.878Z,4.04
2023-05-10T08:04:10.777Z,3.85
2023-05-10T08:05:10.776Z,4.02
2023-05-10T08:06:10.810Z,4.19
2023-05-10T08:07:10.859Z,3.96
2023-05-10T08:08:10.876Z,4.04
2023-05-10T08:09:10.976Z,4.08
2023-05-10T08:10:11.183Z,3.92
2023-05-10T08:11:11.037Z,3.83
2023-05-10T08:12:11.080Z,3.78
2023-05-10T08:13:11.115Z,3.69
2023-05-10T08:14:11.271Z,3.83
2023-05-10T08:15:11.642Z,4.06
2023-05-10T08:16:11.325Z,3.91
2023-05-10T08:17:11.375Z,3.85
2023-05-10T08:18:11.434Z,3.80
2023-05-10T08:19:11.505Z,3.93
2023-05-10T08:20:11.507Z,3.91
2023-05-10T08:21:11.568Z,3.93
2023-05-10T08:22:11.642Z,4.18
2023-05-10T08:23:11.659Z,4.25
2023-05-10T08:24:11.728Z,4.33
2023-05-10T08:25:11.751Z,4.35
2023-05-10T08:26:11.871Z,4.27
2023-05-10T08:27:11.854Z,4.25
2023-05-10T08:28:12.091Z,4.39
2023-05-10T08:29:11.978Z,4.30
2023-05-10T08:30:12.196Z,4.19
2023-05-10T08:31:12.131Z,4.19
2023-05-10T08:32:12.122Z,4.17
2023-05-10T08:33:12.284Z,4.05
2023-05-10T08:34:12.226Z,4.08
2023-05-10T08:35:12.680Z,4.03
2023-05-10T08:36:12.363Z,3.97
2023-05-10T08:37:12.414Z,4.10
2023-05-10T08:38:12.454Z,4.05
2023-05-10T08:39:22.777Z,3.82
2023-05-10T08:40:14.234Z,3.82
2023-05-10T08:41:12.533Z,3.84
2023-05-10T08:42:12.496Z,3.86
2023-05-10T08:43:12.503Z,4.00
2023-05-10T08:44:12.473Z,4.08
2023-05-10T08:45:12.666Z,2.70
2023-05-10T08:46:12.594Z,2.65
2023-05-10T08:47:12.648Z,2.33
2023-05-10T08:48:12.477Z,2.27
2023-05-10T08:49:12.429Z,2.30
2023-05-10T08:50:12.647Z,2.04
2023-05-10T08:51:12.455Z,1.88
2023-05-10T08:52:12.460Z,1.92
2023-05-10T08:53:12.401Z,1.83
2023-05-10T08:54:12.455Z,1.74
2023-05-10T08:55:12.686Z,1.66
2023-05-10T08:56:12.382Z,1.60
2023-05-10T08:57:12.450Z,1.53
2023-05-10T08:58:12.454Z,1.49
2023-05-10T08:59:12.457Z,1.39
2023-05-10T09:00:12.715Z,1.32
2023-05-10T09:01:12.541Z,1.28
2023-05-10T09:02:12.565Z,1.26
2023-05-10T09:03:12.610Z,1.23
2023-05-10T09:04:12.786Z,1.19
2023-05-10T09:05:13.209Z,1.15
2023-05-10T09:06:12.725Z,1.07
2023-05-10T09:07:12.805Z,1.02
2023-05-10T09:08:12.821Z,0.99
2023-05-10T09:09:12.894Z,1.00
2023-05-10T09:10:12.959Z,0.95
2023-05-10T09:11:13.000Z,0.96
2023-05-10T09:12:13.045Z,0.95
2023-05-10T09:13:13.112Z,0.90
2023-05-10T09:14:13.185Z,0.90
2023-05-10T09:15:13.250Z,0.87
2023-05-10T09:16:21.336Z,0.84
2023-05-10T09:17:14.360Z,0.84
2023-05-10T09:18:13.380Z,0.84
2023-05-10T09:19:13.393Z,0.79
2023-05-10T09:20:13.692Z,0.79
2023-05-10T09:21:13.197Z,0.78
2023-05-10T09:22:13.207Z,0.74
2023-05-10T09:23:13.245Z,0.71
2023-05-10T09:24:13.196Z,0.69
2023-05-10T09:25:13.739Z,0.68
2023-05-10T09:26:13.285Z,0.70
2023-05-10T09:27:13.336Z,0.69
2023-05-10T09:28:13.425Z,0.65
2023-05-10T09:29:15.213Z,0.67
2023-05-10T09:30:13.674Z,0.65
2023-05-10T09:31:13.478Z,0.66
2023-05-10T09:32:13.836Z,0.67
2023-05-10T09:33:13.462Z,0.67
2023-05-10T09:34:13.421Z,0.68
2023-05-10T09:35:13.416Z,0.65
2023-05-10T09:36:13.410Z,0.65
2023-05-10T09:37:13.397Z,0.66
2023-05-10T09:38:13.413Z,0.66
2023-05-10T09:39:13.390Z,0.67
2023-05-10T09:40:13.680Z,0.68
2023-05-10T09:41:13.353Z,0.66
2023-05-10T09:42:13.357Z,0.69
2023-05-10T09:43:13.372Z,0.65
2023-05-10T09:44:13.363Z,0.66
2023-05-10T09:46:13.756Z,0.70
2023-05-10T09:47:13.352Z,0.69
2023-05-10T09:48:13.366Z,0.69
2023-05-10T09:49:13.302Z,0.68
2023-05-10T09:50:13.304Z,0.69
2023-05-10T09:51:13.332Z,0.67
2023-05-10T09:52:13.339Z,0.69
2023-05-10T09:53:13.303Z,0.68
2023-05-10T09:54:13.305Z,0.68
2023-05-10T09:55:13.325Z,0.69
2023-05-10T09:56:13.276Z,0.73
2023-05-10T09:57:13.260Z,0.67
2023-05-10T09:58:13.285Z,0.69
2023-05-10T09:59:13.237Z,0.68
2023-05-10T10:00:13.217Z,0.68
2023-05-10T10:01:13.733Z,0.69
2023-05-10T10:02:13.237Z,0.70
2023-05-10T10:03:13.208Z,0.68
2023-05-10T10:04:13.229Z,0.73
2023-05-10T10:05:13.310Z,0.69
2023-05-10T10:06:26.376Z,0.75
2023-05-10T10:07:14.200Z,0.75
2023-05-10T10:08:13.208Z,0.71
2023-05-10T10:09:13.182Z,0.72
2023-05-10T10:10:13.162Z,0.73
2023-05-10T10:11:13.225Z,0.71
2023-05-10T10:12:13.135Z,0.65
2023-05-10T10:13:13.130Z,0.64
2023-05-10T10:14:13.133Z,0.65
2023-05-10T10:15:14.650Z,0.66
2023-05-10T10:16:13.184Z,0.65
2023-05-10T10:17:13.141Z,0.65
2023-05-10T10:18:13.090Z,0.60
2023-05-10T10:19:13.092Z,0.58
2023-05-10T10:20:13.098Z,0.57
2023-05-10T10:21:13.222Z,0.57
2023-05-10T10:22:13.062Z,0.58
2023-05-10T10:23:13.798Z,0.57
2023-05-10T10:24:13.091Z,0.61
2023-05-10T10:25:13.052Z,0.58
2023-05-10T10:26:13.249Z,0.58
2023-05-10T10:27:13.028Z,0.58
2023-05-10T10:28:13.005Z,0.57
2023-05-10T10:29:13.018Z,0.54
2023-05-10T10:30:13.035Z,0.57
2023-05-10T10:31:13.099Z,0.57
2023-05-10T10:32:12.994Z,0.56
2023-05-10T10:33:24.234Z,0.58
2023-05-10T10:34:14.073Z,0.58
2023-05-10T10:35:13.056Z,0.58
2023-05-10T10:36:13.251Z,0.58
2023-05-10T10:37:13.012Z,0.58
2023-05-10T10:38:12.996Z,0.69
2023-05-10T10:39:13.038Z,0.75
2023-05-10T10:40:13.017Z,0.85
2023-05-10T10:41:13.048Z,1.04
2023-05-10T10:42:13.034Z,1.11
2023-05-10T10:43:13.065Z,1.24
2023-05-10T10:44:13.115Z,1.42
2023-05-10T10:45:13.154Z,1.16
2023-05-10T10:46:13.220Z,1.19
2023-05-10T10:47:13.380Z,1.37
2023-05-10T10:48:13.281Z,2.02
2023-05-10T10:49:13.317Z,2.23
2023-05-10T10:50:13.361Z,2.44
2023-05-10T10:51:13.441Z,2.31
2023-05-10T10:52:13.483Z,1.86
2023-05-10T10:53:13.547Z,1.96
2023-05-10T10:54:13.636Z,2.07
2023-05-10T10:55:13.665Z,3.09
2023-05-10T10:56:13.679Z,3.71
2023-05-10T10:57:13.744Z,3.76
2023-05-10T10:58:13.756Z,2.90
2023-05-10T10:59:13.773Z,2.90
2023-05-10T11:00:13.800Z,2.46
2023-05-10T11:01:13.866Z,2.40
2023-05-10T11:02:13.891Z,2.57
2023-05-10T11:03:14.027Z,2.72
2023-05-10T11:04:14.094Z,2.19
2023-05-10T11:05:14.217Z,2.16
2023-05-10T11:06:14.051Z,2.12
2023-05-10T11:07:14.094Z,2.00
2023-05-10T11:08:14.101Z,1.82
2023-05-10T11:09:14.132Z,2.18
2023-05-10T11:10:14.248Z,2.51
2023-05-10T11:11:14.738Z,2.63
2023-05-10T11:12:14.242Z,2.58
2023-05-10T11:13:14.277Z,2.46
2023-05-10T11:14:14.314Z,2.53
2023-05-10T11:15:14.508Z,2.27
2023-05-10T11:16:14.820Z,2.47
2023-05-10T11:17:14.442Z,2.59
2023-05-10T11:18:14.439Z,2.33
2023-05-10T11:19:14.646Z,2.29
2023-05-10T11:20:14.641Z,2.56
2023-05-10T11:21:14.736Z,2.57
2023-05-10T11:22:14.560Z,2.38
2023-05-10T11:23:14.576Z,1.62
2023-05-10T11:24:14.653Z,2.14
2023-05-10T11:25:14.621Z,2.39
2023-05-10T11:26:14.679Z,2.67
2023-05-10T11:27:14.680Z,2.79
2023-05-10T11:28:14.717Z,2.67
2023-05-10T11:29:14.718Z,2.29
2023-05-10T11:30:14.835Z,2.67
2023-05-10T11:31:15.345Z,2.81
2023-05-10T11:32:14.811Z,2.87
2023-05-10T11:33:14.843Z,3.11
2023-05-10T11:34:14.859Z,3.07
2023-05-10T11:35:14.805Z,3.10
2023-05-10T11:36:15.265Z,3.25
2023-05-10T11:37:14.891Z,2.62
2023-05-10T11:38:15.256Z,2.29
2023-05-10T11:39:14.892Z,2.27
2023-05-10T11:40:15.090Z,2.10
2023-05-10T11:41:15.238Z,2.07
2023-05-10T11:42:15.016Z,2.03
2023-05-10T11:43:15.017Z,2.10
2023-05-10T11:44:15.015Z,1.86
2023-05-10T11:45:15.082Z,1.88
2023-05-10T11:46:15.204Z,1.71
2023-05-10T11:47:15.178Z,1.76
2023-05-10T11:48:15.246Z,1.56
2023-05-10T11:49:15.272Z,1.59
2023-05-10T11:50:15.639Z,1.43
2023-05-10T11:51:15.767Z,1.37
2023-05-10T11:52:15.372Z,1.43
2023-05-10T11:53:15.429Z,1.36
2023-05-10T11:54:15.435Z,1.30
2023-05-10T11:55:15.483Z,1.27
2023-05-10T11:56:15.562Z,1.23
2023-05-10T11:57:15.607Z,1.13
2023-05-10T11:58:15.627Z,1.12
2023-05-10T11:59:15.705Z,1.10
2023-05-10T12:00:15.854Z,1.02
2023-05-10T12:01:15.789Z,0.99
2023-05-10T12:02:15.870Z,0.97
2023-05-10T12:03:15.936Z,0.96
2023-05-10T12:04:16.084Z,0.90
2023-05-10T12:05:15.949Z,0.88
2023-05-10T12:06:16.029Z,0.87
2023-05-10T12:07:16.049Z,0.85
2023-05-10T12:08:16.119Z,0.82
2023-05-10T12:09:17.598Z,0.81
2023-05-10T12:10:16.560Z,0.77
2023-05-10T12:11:17.239Z,0.76
2023-05-10T12:12:16.330Z,0.77
2023-05-10T12:13:16.426Z,0.77
2023-05-10T12:14:16.413Z,0.74
2023-05-10T12:15:16.478Z,0.79
2023-05-10T12:16:16.523Z,0.77
2023-05-10T12:17:16.627Z,0.79
2023-05-10T12:18:16.728Z,0.75
2023-05-10T12:19:16.749Z,0.74
2023-05-10T12:20:17.050Z,0.76
2023-05-10T12:21:17.783Z,0.76
2023-05-10T12:22:16.874Z,0.78
2023-05-10T12:23:16.902Z,0.75
2023-05-10T12:24:17.044Z,0.73
2023-05-10T12:25:17.003Z,0.73
2023-05-10T12:26:17.280Z,0.72
2023-05-10T12:27:17.113Z,0.74
2023-05-10T12:28:17.198Z,0.72
2023-05-10T12:29:17.233Z,0.73
2023-05-10T12:30:17.406Z,0.74
2023-05-10T12:31:17.757Z,0.74
2023-05-10T12:32:17.490Z,0.73
2023-05-10T12:33:17.549Z,0.73
2023-05-10T12:34:17.559Z,0.70
2023-05-10T12:35:17.595Z,0.73
2023-05-10T12:36:17.745Z,0.70
2023-05-10T12:37:17.681Z,0.68
2023-05-10T12:38:17.731Z,0.67
2023-05-10T12:39:17.774Z,0.68
2023-05-10T12:40:18.138Z,0.68
2023-05-10T12:41:18.315Z,0.69
2023-05-10T12:42:17.947Z,0.66
2023-05-10T12:43:18.040Z,0.67
2023-05-10T12:44:18.088Z,0.68
2023-05-10T12:45:18.115Z,0.68
2023-05-10T12:46:18.364Z,0.69
2023-05-10T12:47:18.232Z,0.68
2023-05-10T12:48:18.298Z,0.65
2023-05-10T12:49:18.344Z,0.68
2023-05-10T12:50:18.617Z,0.68
2023-05-10T12:51:18.770Z,0.68
2023-05-10T12:52:18.521Z,0.67
2023-05-10T12:53:18.584Z,0.70
2023-05-10T12:54:18.590Z,0.68
2023-05-10T12:55:18.605Z,0.67
2023-05-10T12:56:18.772Z,0.66
2023-05-10T12:57:18.609Z,0.69
2023-05-10T12:58:34.425Z,0.67
2023-05-10T12:59:19.653Z,0.68
2023-05-10T13:00:18.814Z,0.67
2023-05-10T13:01:25.796Z,0.66
2023-05-10T13:02:18.629Z,0.68
2023-05-10T13:03:18.636Z,0.67
2023-05-10T13:04:18.663Z,0.64
2023-05-10T13:05:18.581Z,0.66
2023-05-10T13:06:18.799Z,0.63
2023-05-10T13:07:18.590Z,0.64
2023-05-10T13:08:18.614Z,0.63
2023-05-10T13:09:18.574Z,0.62
2023-05-10T13:10:18.731Z,0.59
2023-05-10T13:11:18.788Z,0.61
2023-05-10T13:12:18.586Z,0.57
2023-05-10T13:13:18.592Z,0.55
2023-05-10T13:14:18.546Z,0.57
2023-05-10T13:15:18.533Z,0.58
2023-05-10T13:16:18.794Z,0.57
2023-05-10T13:17:18.579Z,0.53
2023-05-10T13:18:18.617Z,0.52
2023-05-10T13:19:18.621Z,0.54
2023-05-10T13:20:18.738Z,0.53